Time;durP1;ratioP1;P1;durP2;ratioP2;P2;SDS_P1;SDS_P2;PMS_P1;PMS_P2;Temp;Humidity;BMP_temperature;BMP_pressure;BME280_temperature;BME280_humidity;BME280_pressure;Samples;Min_cycle;Max_cycle;Signal;HPM_P1;HPM_P2
2022/06/17 00:01:22;;;;;;;1.77;1.63;;;26.80;51.60;;;;;;5073402;27;20599;-48
2022/06/17 00:04:03;;;;;;;2.00;1.83;;;26.70;51.60;;;;;;5077136;28;20583;-47
2022/06/17 00:06:49;;;;;;;2.07;1.70;;;26.70;51.60;;;;;;5128184;27;20517;-46
2022/06/17 00:09:32;;;;;;;2.10;1.87;;;26.70;51.40;;;;;;5077859;27;21124;-47
2022/06/17 00:12:15;;;;;;;2.03;1.83;;;26.70;51.50;;;;;;5087509;28;20520;-47
2022/06/17 00:15:15;;;;;;;1.67;1.57;;;26.70;51.60;;;;;;5066394;27;21164;-47
2022/06/17 00:17:57;;;;;;;2.00;1.87;;;26.70;51.60;;;;;;5087779;28;20520;-48
2022/06/17 00:20:39;;;;;;;1.80;1.40;;;26.70;51.50;;;;;;5085792;27;20619;-47
2022/06/17 00:23:22;;;;;;;1.80;1.67;;;26.70;51.60;;;;;;5087870;27;21104;-48
2022/06/17 00:26:03;;;;;;;1.87;1.67;;;26.70;51.60;;;;;;5037574;27;20551;-48
2022/06/17 00:28:45;;;;;;;1.80;1.70;;;26.70;51.70;;;;;;5086399;28;21088;-47
2022/06/17 00:31:26;;;;;;;1.93;1.73;;;26.70;51.70;;;;;;5061773;27;20691;-47
2022/06/17 00:34:08;;;;;;;2.20;2.00;;;26.70;51.80;;;;;;5075000;27;20536;-48
2022/06/17 00:36:49;;;;;;;1.90;1.80;;;26.70;51.70;;;;;;5108063;27;20518;-48
2022/06/17 00:39:33;;;;;;;1.90;1.80;;;26.70;51.80;;;;;;5073921;28;20535;-47
2022/06/17 00:42:15;;;;;;;1.60;1.47;;;26.70;51.70;;;;;;5092116;27;20526;-48
2022/06/17 00:45:02;;;;;;;1.57;1.40;;;26.70;51.70;;;;;;5070343;28;20545;-49
2022/06/17 00:47:49;;;;;;;1.80;1.63;;;26.70;51.60;;;;;;5088283;28;20565;-48
2022/06/17 00:50:37;;;;;;;1.57;1.47;;;26.70;51.60;;;;;;5076385;28;21007;-48
2022/06/17 00:53:21;;;;;;;2.47;1.67;;;26.70;51.70;;;;;;5106181;27;20556;-47
2022/06/17 00:56:08;;;;;;;5.00;1.87;;;26.70;51.80;;;;;;5058257;27;21037;-47
2022/06/17 00:59:02;;;;;;;2.10;1.80;;;26.60;51.70;;;;;;5087393;28;20511;-48
2022/06/17 01:01:50;;;;;;;1.87;1.77;;;26.60;51.70;;;;;;5079280;28;20750;-49
2022/06/17 01:04:39;;;;;;;1.77;1.67;;;26.60;51.80;;;;;;5097077;27;20585;-48
2022/06/17 01:07:21;;;;;;;1.83;1.67;;;26.60;51.70;;;;;;5087527;28;21054;-48
2022/06/17 01:10:09;;;;;;;2.22;1.80;;;26.60;51.80;;;;;;5076421;28;20951;-47
2022/06/17 01:12:53;;;;;;;4.13;1.67;;;26.60;51.80;;;;;;5128603;27;21027;-49
2022/06/17 01:15:36;;;;;;;2.50;1.70;;;26.60;51.70;;;;;;5070737;27;20550;-48
2022/06/17 01:18:17;;;;;;;1.67;1.57;;;26.60;51.90;;;;;;5087512;28;20511;-47
2022/06/17 01:21:11;;;;;;;1.53;1.40;;;26.60;51.70;;;;;;5084287;27;20536;-48
2022/06/17 01:23:53;;;;;;;1.70;1.60;;;26.60;51.80;;;;;;5084874;28;20532;-48
2022/06/17 01:26:34;;;;;;;1.80;1.70;;;26.60;51.80;;;;;;5067679;27;20541;-48
2022/06/17 01:29:16;;;;;;;1.83;1.73;;;26.60;51.90;;;;;;5113868;27;20527;-48
2022/06/17 01:31:57;;;;;;;2.10;1.90;;;26.60;52.00;;;;;;5060901;27;20949;-49
2022/06/17 01:34:38;;;;;;;2.00;1.80;;;26.60;51.90;;;;;;5124886;27;20525;-47
2022/06/17 01:37:21;;;;;;;1.87;1.77;;;26.60;52.00;;;;;;5073166;27;20525;-48
2022/06/17 01:40:02;;;;;;;1.80;1.63;;;26.60;52.10;;;;;;5113628;27;20549;-46
2022/06/17 01:42:43;;;;;;;1.93;1.83;;;26.50;52.00;;;;;;5087706;28;20504;-47
2022/06/17 01:45:24;;;;;;;1.50;1.40;;;26.50;52.10;;;;;;5098987;27;20564;-48
2022/06/17 01:48:08;;;;;;;2.03;1.90;;;26.50;52.10;;;;;;5086164;27;20524;-49
2022/06/17 01:50:50;;;;;;;2.43;2.00;;;26.50;52.10;;;;;;5086008;27;20599;-48
2022/06/17 01:53:34;;;;;;;1.87;1.57;;;26.50;52.00;;;;;;5104632;27;20581;-47
2022/06/17 01:56:19;;;;;;;1.77;1.63;;;26.50;52.20;;;;;;5087786;27;20566;-48
2022/06/17 01:59:01;;;;;;;1.33;1.23;;;26.50;52.10;;;;;;5087070;27;20585;-46
2022/06/17 02:01:48;;;;;;;1.70;1.60;;;26.50;52.20;;;;;;5018890;28;20674;-47
2022/06/17 02:04:33;;;;;;;2.10;1.83;;;26.50;52.20;;;;;;5112130;27;20582;-49
2022/06/17 02:07:20;;;;;;;1.97;1.87;;;26.50;52.10;;;;;;5084255;27;20512;-48
2022/06/17 02:10:01;;;;;;;1.90;1.80;;;26.50;52.20;;;;;;5088428;27;20549;-48
2022/06/17 02:12:41;;;;;;;1.90;1.80;;;26.50;52.20;;;;;;5149942;27;1231749;-48
2022/06/17 02:15:25;;;;;;;1.47;1.37;;;26.50;52.30;;;;;;5062914;27;20547;-47
2022/06/17 02:18:29;;;;;;;1.77;1.67;;;26.40;52.20;;;;;;5086896;28;20935;-49
2022/06/17 02:21:22;;;;;;;2.00;1.80;;;26.50;52.30;;;;;;5081881;27;20543;-48
2022/06/17 02:24:05;;;;;;;1.77;1.67;;;26.40;52.30;;;;;;5079580;27;21080;-48
2022/06/17 02:26:47;;;;;;;1.50;1.40;;;26.40;52.30;;;;;;5087298;28;20531;-49
2022/06/17 02:29:30;;;;;;;1.70;1.50;;;26.40;52.20;;;;;;5083487;27;20507;-46
2022/06/17 02:32:16;;;;;;;1.90;1.80;;;26.40;52.20;;;;;;5073143;28;20559;-49
2022/06/17 02:35:01;;;;;;;1.70;1.60;;;26.40;52.20;;;;;;5076956;27;20537;-48
2022/06/17 02:37:41;;;;;;;1.77;1.63;;;26.40;52.30;;;;;;5128580;27;20505;-47
2022/06/17 02:40:28;;;;;;;2.70;2.03;;;26.40;52.30;;;;;;5087625;27;20549;-48
2022/06/17 02:43:14;;;;;;;1.80;1.60;;;26.40;52.40;;;;;;5128580;27;20913;-47
2022/06/17 02:46:00;;;;;;;1.60;1.50;;;26.40;52.30;;;;;;5082503;27;20595;-48
2022/06/17 02:48:45;;;;;;;1.57;1.47;;;26.40;52.30;;;;;;5087554;27;20566;-46
2022/06/17 02:51:30;;;;;;;1.67;1.53;;;26.40;52.30;;;;;;5069031;27;20545;-48
2022/06/17 02:54:15;;;;;;;2.20;2.10;;;26.40;52.10;;;;;;5081293;28;20548;-47
2022/06/17 02:56:57;;;;;;;1.57;1.47;;;26.40;52.20;;;;;;5099561;27;20579;-47
2022/06/17 02:59:50;;;;;;;2.20;2.00;;;26.40;52.30;;;;;;5119055;27;20527;-49
2022/06/17 03:02:36;;;;;;;1.53;1.40;;;26.30;52.40;;;;;;5071022;28;21142;-48
2022/06/17 03:05:22;;;;;;;1.60;1.50;;;26.30;52.20;;;;;;5068715;28;20551;-49
2022/06/17 03:08:10;;;;;;;1.63;1.53;;;26.30;52.20;;;;;;5153071;22;20566;-48
2022/06/17 03:10:54;;;;;;;1.80;1.70;;;26.30;52.30;;;;;;5061728;27;21203;-47
2022/06/17 03:13:42;;;;;;;1.37;1.27;;;26.30;52.30;;;;;;5087221;28;20948;-50
2022/06/17 03:16:24;;;;;;;1.60;1.50;;;26.30;52.20;;;;;;5062188;27;20631;-51
2022/06/17 03:19:05;;;;;;;2.30;1.80;;;26.30;52.30;;;;;;5091656;27;20925;-47
2022/06/17 03:21:47;;;;;;;1.63;1.53;;;26.30;52.30;;;;;;5107985;27;20584;-48
2022/06/17 03:24:38;;;;;;;1.90;1.80;;;26.20;52.10;;;;;;5113115;27;20565;-51
2022/06/17 03:27:23;;;;;;;1.90;1.80;;;26.30;52.30;;;;;;5129079;27;21033;-49
2022/06/17 03:30:05;;;;;;;1.77;1.67;;;26.30;52.50;;;;;;5106734;27;20529;-48
2022/06/17 03:32:53;;;;;;;2.93;2.37;;;26.20;52.40;;;;;;5087043;28;20565;-49
2022/06/17 03:35:48;;;;;;;2.43;2.23;;;26.20;52.30;;;;;;5091795;27;20569;-50
2022/06/17 03:38:37;;;;;;;1.77;1.67;;;26.20;52.30;;;;;;5125726;27;20538;-49
2022/06/17 03:41:22;;;;;;;1.83;1.63;;;26.20;52.30;;;;;;5077476;27;20545;-50
2022/06/17 03:44:09;;;;;;;1.97;1.87;;;26.20;52.40;;;;;;5084300;27;20574;-49
2022/06/17 03:46:54;;;;;;;1.60;1.50;;;26.20;52.40;;;;;;5080025;27;20648;-49
2022/06/17 03:49:40;;;;;;;1.83;1.53;;;26.20;53.50;;;;;;5077844;27;20524;-48
2022/06/17 03:52:30;;;;;;;1.87;1.70;;;26.20;52.30;;;;;;5087417;28;20520;-48
2022/06/17 03:55:21;;;;;;;1.90;1.80;;;26.20;52.40;;;;;;5046937;28;20547;-48
2022/06/17 03:58:02;;;;;;;2.20;1.70;;;26.20;52.40;;;;;;5137035;27;1272734;-50
2022/06/17 04:01:13;;;;;;;1.90;1.80;;;26.20;52.40;;;;;;5084326;27;20551;-50
2022/06/17 04:04:00;;;;;;;7.40;6.67;;;26.20;53.70;;;;;;5064991;27;20545;-50
2022/06/17 04:06:44;;;;;;;4.50;4.10;;;26.10;48.90;;;;;;5067181;27;20541;-49
2022/06/17 04:09:30;;;;;;;3.87;3.57;;;26.00;47.30;;;;;;5078927;27;20652;-48
2022/06/17 04:12:24;;;;;;;11.50;3.80;;;25.80;45.80;;;;;;5126069;27;21079;-52
2022/06/17 04:15:37;;;;;;;5.53;3.73;;;25.60;45.40;;;;;;5061183;28;20602;-49
2022/06/17 04:18:18;;;;;;;3.30;3.10;;;25.50;45.50;;;;;;5087459;28;21088;-48
2022/06/17 04:20:58;;;;;;;4.07;2.93;;;25.40;44.80;;;;;;5094646;27;20952;-47
2022/06/17 04:23:42;;;;;;;3.93;2.97;;;25.30;44.00;;;;;;5077945;28;20622;-49
2022/06/17 04:26:46;;;;;;;2.70;2.50;;;25.20;45.10;;;;;;5067114;27;20532;-49
2022/06/17 04:29:35;;;;;;;5.00;3.23;;;25.10;45.00;;;;;;5084196;27;20520;-50
2022/06/17 04:32:28;;;;;;;5.07;4.30;;;25.00;45.10;;;;;;5073555;28;20520;-48
2022/06/17 04:35:13;;;;;;;5.63;2.80;;;24.90;45.10;;;;;;5095141;27;20540;-45
2022/06/17 04:37:56;;;;;;;3.10;2.50;;;24.90;45.20;;;;;;5076142;28;20529;-48
2022/06/17 04:41:13;;;;;;;3.00;2.80;;;24.80;45.60;;;;;;5072127;27;20540;-50
2022/06/17 04:44:15;;;;;;;3.57;2.87;;;24.70;45.60;;;;;;5078424;27;20528;-48
2022/06/17 04:47:00;;;;;;;3.03;2.57;;;24.70;45.60;;;;;;5105779;27;20537;-49
2022/06/17 04:50:00;;;;;;;3.27;2.37;;;24.60;46.10;;;;;;5109205;27;21070;-49
2022/06/17 04:52:51;;;;;;;3.97;2.70;;;24.50;46.10;;;;;;5086754;28;20526;-52
2022/06/17 04:55:54;;;;;;;2.93;2.63;;;24.50;46.00;;;;;;5049214;28;20590;-50
2022/06/17 04:58:41;;;;;;;2.70;2.50;;;24.60;46.20;;;;;;5127927;27;20570;-51
2022/06/17 05:01:25;;;;;;;4.20;2.57;;;24.60;46.50;;;;;;5064427;27;20600;-47
2022/06/17 05:04:33;;;;;;;6.77;5.10;;;24.70;46.90;;;;;;5064780;27;20587;-48
2022/06/17 05:07:16;;;;;;;6.20;3.70;;;24.60;47.00;;;;;;5073675;27;20525;-48
2022/06/17 05:10:00;;;;;;;3.73;3.33;;;24.60;46.90;;;;;;5073708;28;20575;-51
2022/06/17 05:12:44;;;;;;;5.30;2.93;;;24.60;46.70;;;;;;5087100;28;20573;-49
2022/06/17 05:15:25;;;;;;;2.40;2.13;;;24.60;46.80;;;;;;5066066;28;20560;-47
2022/06/17 05:18:06;;;;;;;5.37;3.10;;;24.50;46.50;;;;;;5086139;27;20655;-50
2022/06/17 05:20:47;;;;;;;6.33;2.90;;;24.50;47.00;;;;;;5100795;27;20553;-50
2022/06/17 05:23:29;;;;;;;5.67;3.10;;;24.30;46.70;;;;;;5143996;27;20518;-47
2022/06/17 05:26:10;;;;;;;3.13;2.23;;;24.30;47.10;;;;;;5072013;27;20682;-48
2022/06/17 05:28:52;;;;;;;4.83;2.87;;;24.30;47.30;;;;;;5086838;28;20580;-50
2022/06/17 05:31:35;;;;;;;4.40;3.17;;;24.30;47.40;;;;;;5046979;27;20558;-49
2022/06/17 05:34:18;;;;;;;3.13;2.63;;;24.40;47.50;;;;;;5074272;27;20594;-49
2022/06/17 05:36:59;;;;;;;3.40;3.10;;;24.50;48.80;;;;;;5087490;28;20523;-48
2022/06/17 05:39:45;;;;;;;3.93;2.20;;;24.50;47.50;;;;;;5131701;27;20872;-50
2022/06/17 05:42:27;;;;;;;4.53;2.27;;;24.50;47.50;;;;;;5135471;27;1210002;-50
2022/06/17 05:45:13;;;;;;;3.03;2.30;;;24.50;47.50;;;;;;5068150;27;20620;-48
2022/06/17 05:48:15;;;;;;;3.67;2.30;;;24.60;47.40;;;;;;5087168;27;21042;-48
2022/06/17 05:51:04;;;;;;;3.17;2.40;;;24.60;47.50;;;;;;5084489;27;20532;-47
2022/06/17 05:54:01;;;;;;;4.13;2.57;;;24.60;47.50;;;;;;5150047;27;21103;-48
2022/06/17 05:57:06;;;;;;;3.40;2.23;;;24.70;47.20;;;;;;5108805;27;20540;-51
2022/06/17 05:59:47;;;;;;;3.13;2.50;;;24.50;47.70;;;;;;5060822;27;21215;-49
2022/06/17 06:02:32;;;;;;;3.07;2.60;;;24.60;48.10;;;;;;5134001;27;20551;-51
2022/06/17 06:05:21;;;;;;;3.05;2.60;;;24.60;48.30;;;;;;5133087;27;1223737;-48
2022/06/17 06:08:06;;;;;;;3.67;2.30;;;24.60;48.10;;;;;;5118510;27;20812;-50
2022/06/17 06:10:47;;;;;;;2.27;2.07;;;24.70;48.30;;;;;;5069847;27;20548;-46
2022/06/17 06:13:28;;;;;;;2.40;2.20;;;24.70;48.30;;;;;;5126411;27;20520;-49
2022/06/17 06:16:10;;;;;;;4.27;2.40;;;24.80;48.20;;;;;;5102559;27;20538;-52
2022/06/17 06:18:54;;;;;;;2.60;2.40;;;24.80;48.30;;;;;;5085540;27;20590;-49
2022/06/17 06:21:37;;;;;;;2.63;2.43;;;24.80;48.10;;;;;;5087002;27;20949;-52
2022/06/17 06:24:19;;;;;;;2.63;2.43;;;24.90;48.30;;;;;;5068328;27;20592;-49
2022/06/17 06:27:00;;;;;;;2.70;2.30;;;24.90;48.20;;;;;;5087167;27;20580;-49
2022/06/17 06:29:50;;;;;;;2.67;2.47;;;24.90;48.30;;;;;;5111639;27;20528;-49
2022/06/17 06:32:31;;;;;;;2.10;1.90;;;24.90;48.30;;;;;;5128589;27;20571;-48
2022/06/17 06:35:26;;;;;;;2.27;2.07;;;25.00;48.40;;;;;;5101246;27;20539;-52
2022/06/17 06:38:07;;;;;;;2.23;1.80;;;25.00;48.50;;;;;;5127885;27;20497;-49
2022/06/17 06:40:50;;;;;;;2.50;2.30;;;25.00;48.50;;;;;;5066815;28;20670;-47
2022/06/17 06:43:31;;;;;;;2.73;2.30;;;25.00;48.60;;;;;;5087567;27;20544;-48
2022/06/17 06:46:36;;;;;;;1.87;1.77;;;25.00;48.70;;;;;;5067303;27;20717;-49
2022/06/17 06:49:18;;;;;;;3.37;2.20;;;25.10;48.60;;;;;;5066154;27;21063;-48
2022/06/17 06:52:00;;;;;;;2.30;2.20;;;25.10;48.60;;;;;;5072712;27;20533;-47
2022/06/17 06:54:40;;;;;;;2.43;2.10;;;25.10;48.50;;;;;;5067954;28;20538;-49
2022/06/17 06:57:21;;;;;;;2.73;1.97;;;25.10;48.60;;;;;;5121806;27;20535;-50
2022/06/17 07:00:14;;;;;;;2.30;2.20;;;25.10;48.60;;;;;;5095370;27;20549;-48
2022/06/17 07:02:56;;;;;;;1.73;1.63;;;25.10;48.60;;;;;;5067590;28;20548;-49
2022/06/17 07:05:39;;;;;;;2.53;2.33;;;25.10;48.60;;;;;;5094936;27;1296417;-46
2022/06/17 07:08:25;;;;;;;4.10;2.10;;;25.10;48.60;;;;;;5084303;27;20532;-50
2022/06/17 07:11:15;;;;;;;2.53;2.33;;;25.10;48.60;;;;;;5079662;27;21084;-48
2022/06/17 07:13:55;;;;;;;2.23;2.03;;;25.10;48.70;;;;;;5101677;27;20602;-52
2022/06/17 07:16:37;;;;;;;2.30;2.10;;;25.10;48.80;;;;;;5058652;27;21110;-49
2022/06/17 07:19:19;;;;;;;3.00;2.37;;;25.10;48.90;;;;;;5066463;28;20595;-49
2022/06/17 07:22:00;;;;;;;2.83;2.40;;;25.10;48.80;;;;;;5105519;27;20599;-49
2022/06/17 07:24:42;;;;;;;2.53;2.30;;;25.10;49.00;;;;;;5070148;27;20551;-47
2022/06/17 07:27:23;;;;;;;1.80;1.70;;;25.10;48.90;;;;;;5127072;27;20525;-49
2022/06/17 07:30:04;;;;;;;2.30;2.10;;;25.10;48.90;;;;;;5124967;27;1202025;-48
2022/06/17 07:32:45;;;;;;;2.90;2.30;;;25.10;49.10;;;;;;5063206;27;21746;-46
2022/06/17 07:35:26;;;;;;;2.30;1.80;;;25.10;49.10;;;;;;5052415;27;20555;-49
2022/06/17 07:41:14;;;;;;;1.90;1.80;;;25.10;49.10;;;;;;5074829;27;20595;-52
2022/06/17 07:43:59;;;;;;;1.80;1.70;;;25.10;49.20;;;;;;5084539;28;20850;-48
2022/06/17 07:46:40;;;;;;;2.30;1.77;;;25.10;49.20;;;;;;5083605;27;20539;-48
2022/06/17 07:49:22;;;;;;;2.27;2.10;;;25.20;49.40;;;;;;5086717;28;20891;-49
2022/06/17 07:52:01;;;;;;;3.20;2.43;;;25.20;49.40;;;;;;5084295;27;20555;-49
2022/06/17 07:54:42;;;;;;;2.93;1.97;;;25.20;49.50;;;;;;5115350;27;20566;-51
2022/06/17 07:57:22;;;;;;;1.90;1.80;;;25.10;49.40;;;;;;5085007;28;20531;-48
2022/06/17 08:00:03;;;;;;;2.47;2.27;;;25.10;49.20;;;;;;5096172;27;20542;-48
2022/06/17 08:02:50;;;;;;;1.70;1.60;;;25.20;49.20;;;;;;5087763;28;20511;-48
2022/06/17 08:05:32;;;;;;;2.43;2.23;;;25.20;49.40;;;;;;5054351;28;20590;-50
2022/06/17 08:08:21;;;;;;;5.83;2.50;;;25.10;49.50;;;;;;5128484;27;21112;-47
2022/06/17 08:11:04;;;;;;;4.07;2.07;;;25.20;49.70;;;;;;5020230;28;20889;-48
2022/06/17 08:13:44;;;;;;;2.03;1.93;;;25.20;49.70;;;;;;5083956;27;20544;-49
2022/06/17 08:16:25;;;;;;;1.90;1.80;;;25.20;49.70;;;;;;5067845;27;20548;-48
2022/06/17 08:19:07;;;;;;;2.30;1.90;;;25.20;49.70;;;;;;5107124;27;20526;-50
2022/06/17 08:21:48;;;;;;;1.87;1.77;;;25.20;49.60;;;;;;5060693;27;20554;-48
2022/06/17 08:24:38;;;;;;;1.83;1.73;;;25.20;49.70;;;;;;5113939;27;20650;-53
2022/06/17 08:27:19;;;;;;;3.53;2.70;;;25.10;49.40;;;;;;5088067;28;20541;-48
2022/06/17 08:30:00;;;;;;;2.40;1.77;;;25.20;49.50;;;;;;5074330;28;20776;-48
2022/06/17 08:32:48;;;;;;;1.97;1.87;;;25.10;49.40;;;;;;5077289;28;20605;-49
2022/06/17 08:35:31;;;;;;;2.83;1.87;;;25.20;49.60;;;;;;5084372;27;21157;-51
2022/06/17 08:38:17;;;;;;;1.93;1.83;;;25.20;49.60;;;;;;5105350;27;20525;-48
2022/06/17 08:41:01;;;;;;;2.00;1.90;;;25.20;49.70;;;;;;5060194;28;20545;-48
2022/06/17 08:44:02;;;;;;;1.67;1.53;;;25.10;49.60;;;;;;5081340;28;20624;-48
2022/06/17 08:46:59;;;;;;;2.37;2.20;;;25.10;49.70;;;;;;5063704;27;20556;-52
2022/06/17 08:49:52;;;;;;;2.20;2.00;;;25.20;49.70;;;;;;5083066;28;20515;-47
2022/06/17 08:52:56;;;;;;;1.80;1.70;;;25.20;49.80;;;;;;5070192;28;20937;-49
2022/06/17 08:55:42;;;;;;;1.83;1.73;;;25.20;49.60;;;;;;5134533;27;20654;-53
2022/06/17 08:58:37;;;;;;;1.73;1.63;;;25.10;49.60;;;;;;5077546;28;20939;-50
2022/06/17 09:01:25;;;;;;;2.00;1.90;;;25.20;49.60;;;;;;5108028;27;20574;-48
2022/06/17 09:04:22;;;;;;;3.27;2.27;;;25.20;49.50;;;;;;5105216;27;20866;-47
2022/06/17 09:07:15;;;;;;;2.20;2.00;;;25.20;49.30;;;;;;5084173;28;20589;-50
2022/06/17 09:10:22;;;;;;;3.03;1.87;;;25.20;49.40;;;;;;5075894;27;21502;-47
2022/06/17 09:13:17;;;;;;;2.17;1.87;;;25.20;49.40;;;;;;5067345;28;21125;-49
2022/06/17 09:16:05;;;;;;;2.03;1.93;;;25.20;49.40;;;;;;5085799;22;20570;-47
2022/06/17 09:18:49;;;;;;;1.80;1.67;;;25.20;49.50;;;;;;5076641;28;21120;-51
2022/06/17 09:21:35;;;;;;;1.63;1.53;;;25.20;49.60;;;;;;5113401;27;20662;-50
2022/06/17 09:24:20;;;;;;;2.73;2.53;;;25.20;49.50;;;;;;5074364;28;20599;-49
2022/06/17 09:27:04;;;;;;;2.00;1.90;;;25.20;49.20;;;;;;5109678;27;20587;-51
2022/06/17 09:29:50;;;;;;;2.13;2.00;;;25.20;49.40;;;;;;5058110;28;20971;-51
2022/06/17 09:32:36;;;;;;;1.93;1.57;;;25.20;49.20;;;;;;5129986;27;20548;-50
2022/06/17 09:35:24;;;;;;;1.70;1.60;;;25.20;49.20;;;;;;5061935;28;20964;-51
2022/06/17 09:38:11;;;;;;;2.20;1.97;;;25.20;49.20;;;;;;5075109;28;20594;-50
2022/06/17 09:40:56;;;;;;;1.80;1.70;;;25.20;49.30;;;;;;5045378;28;20562;-48
2022/06/17 09:43:41;;;;;;;2.13;1.93;;;25.20;49.20;;;;;;5079069;28;20592;-50
2022/06/17 09:46:27;;;;;;;1.83;1.73;;;25.20;49.30;;;;;;5092812;27;21160;-50
2022/06/17 09:49:18;;;;;;;1.70;1.60;;;25.20;49.40;;;;;;5123448;27;21067;-48
2022/06/17 09:52:06;;;;;;;2.00;1.90;;;25.20;49.20;;;;;;5060055;28;20539;-51
2022/06/17 09:54:52;;;;;;;6.90;2.17;;;25.20;49.20;;;;;;5057200;27;20598;-50
2022/06/17 09:57:42;;;;;;;2.73;2.00;;;25.20;49.10;;;;;;5104775;27;20529;-50
2022/06/17 10:00:27;;;;;;;5.80;2.47;;;25.20;49.10;;;;;;5079435;27;20619;-51
2022/06/17 10:03:20;;;;;;;2.77;1.90;;;25.20;48.50;;;;;;5081444;28;20575;-50
2022/06/17 10:06:09;;;;;;;2.53;2.33;;;25.30;48.50;;;;;;5056633;28;20552;-48
2022/06/17 10:09:01;;;;;;;2.73;1.80;;;25.20;48.40;;;;;;5113237;27;20654;-47
2022/06/17 10:11:49;;;;;;;1.90;1.60;;;25.30;48.60;;;;;;5063778;28;21071;-48
2022/06/17 10:14:50;;;;;;;2.07;1.80;;;25.20;48.60;;;;;;5021499;28;20589;-49
2022/06/17 10:20:48;;;;;;;1.90;1.80;;;25.20;48.80;;;;;;5065813;27;20573;-49
2022/06/17 10:23:37;;;;;;;1.57;1.47;;;25.20;48.90;;;;;;5126403;27;20532;-49
2022/06/17 10:26:29;;;;;;;2.10;1.87;;;25.20;48.80;;;;;;5091928;27;21059;-48
2022/06/17 10:29:22;;;;;;;2.00;1.90;;;25.20;49.00;;;;;;5147282;27;20523;-49
2022/06/17 10:32:04;;;;;;;1.73;1.63;;;25.20;48.90;;;;;;5087412;27;20524;-50
2022/06/17 10:34:51;;;;;;;2.40;1.50;;;25.20;49.10;;;;;;5081273;28;21082;-50
2022/06/17 10:37:35;;;;;;;1.93;1.60;;;25.20;49.10;;;;;;5125934;27;20598;-49
2022/06/17 10:40:37;;;;;;;1.80;1.40;;;25.20;49.30;;;;;;5124437;27;20536;-50
2022/06/17 10:43:23;;;;;;;1.70;1.50;;;25.20;49.20;;;;;;5149771;27;20863;-49
2022/06/17 10:46:14;;;;;;;2.33;1.60;;;25.20;49.20;;;;;;5044220;28;20542;-48
2022/06/17 10:49:02;;;;;;;2.37;1.43;;;25.20;49.10;;;;;;5085071;28;20519;-49
2022/06/17 10:51:44;;;;;;;1.77;1.67;;;25.20;49.20;;;;;;5068733;27;21181;-49
2022/06/17 10:54:29;;;;;;;2.03;1.60;;;25.20;49.30;;;;;;5090138;27;20544;-48
2022/06/17 10:57:12;;;;;;;1.83;1.73;;;25.30;49.40;;;;;;5088004;27;20515;-48
2022/06/17 10:59:53;;;;;;;2.00;1.67;;;25.20;49.40;;;;;;5085801;27;20596;-51
2022/06/17 11:02:35;;;;;;;1.90;1.70;;;25.30;49.30;;;;;;5080016;28;20535;-48
2022/06/17 11:05:29;;;;;;;1.70;1.60;;;25.20;49.20;;;;;;5069334;28;20604;-50
2022/06/17 11:08:21;;;;;;;1.47;1.37;;;25.30;49.50;;;;;;5081956;27;20941;-48
2022/06/17 11:14:06;;;;;;;1.57;1.47;;;25.30;50.10;;;;;;5082529;28;20646;-49
2022/06/17 11:16:47;;;;;;;1.40;1.17;;;25.30;49.90;;;;;;4963463;27;20556;-49
2022/06/17 11:19:28;;;;;;;2.50;1.77;;;25.30;49.90;;;;;;5106418;27;20550;-50
2022/06/17 11:22:20;;;;;;;1.60;1.50;;;25.30;49.90;;;;;;5127112;27;20400;-48
2022/06/17 11:25:05;;;;;;;1.60;1.50;;;25.30;49.90;;;;;;5144737;27;20534;-48
2022/06/17 11:27:53;;;;;;;2.03;1.80;;;25.30;49.90;;;;;;5153021;27;20960;-50
2022/06/17 11:30:37;;;;;;;1.97;1.83;;;25.40;50.40;;;;;;5062667;27;20586;-49
2022/06/17 11:33:24;;;;;;;1.50;1.40;;;25.40;50.10;;;;;;5082075;28;20531;-47
2022/06/17 11:36:24;;;;;;;1.70;1.60;;;25.30;49.80;;;;;;5069638;27;20566;-51
2022/06/17 11:39:28;;;;;;;1.80;1.70;;;25.30;49.90;;;;;;5101290;27;20534;-49
2022/06/17 11:42:22;;;;;;;2.30;1.83;;;25.30;50.00;;;;;;5128003;27;20542;-48
2022/06/17 11:45:06;;;;;;;1.80;1.67;;;25.40;49.90;;;;;;5062964;27;20977;-50
2022/06/17 11:47:52;;;;;;;1.50;1.40;;;25.30;49.90;;;;;;5125537;27;20644;-50
2022/06/17 11:50:41;;;;;;;2.17;1.97;;;25.30;50.10;;;;;;5091745;27;20719;-49
2022/06/17 11:53:21;;;;;;;2.77;2.10;;;25.40;49.90;;;;;;5111879;27;21168;-47
2022/06/17 11:56:03;;;;;;;2.10;1.90;;;25.40;51.40;;;;;;5042313;27;20531;-51
2022/06/17 11:59:13;;;;;;;2.70;2.07;;;25.40;49.90;;;;;;5073968;27;20521;-50
2022/06/17 12:02:05;;;;;;;2.00;1.90;;;25.40;49.60;;;;;;5079664;28;21010;-47
2022/06/17 12:04:49;;;;;;;1.90;1.80;;;25.40;49.40;;;;;;5107186;27;20740;-50
2022/06/17 12:07:43;;;;;;;1.83;1.73;;;25.40;49.40;;;;;;5077918;27;20587;-50
2022/06/17 12:10:42;;;;;;;2.00;1.57;;;25.40;49.40;;;;;;5065595;28;20586;-50
2022/06/17 12:13:29;;;;;;;2.20;2.10;;;25.40;49.50;;;;;;5021651;28;20524;-49
2022/06/17 12:16:14;;;;;;;2.67;1.50;;;25.40;49.40;;;;;;5106317;27;20569;-53
2022/06/17 12:18:57;;;;;;;2.17;1.97;;;25.40;49.60;;;;;;5127875;27;20521;-49
2022/06/17 12:21:49;;;;;;;1.50;1.40;;;25.40;49.60;;;;;;5126304;27;21279;-51
2022/06/17 12:24:41;;;;;;;2.83;1.50;;;25.40;49.20;;;;;;5072650;28;20603;-50
2022/06/17 12:27:26;;;;;;;1.77;1.60;;;25.40;50.10;;;;;;5103685;27;20537;-49
2022/06/17 12:30:39;;;;;;;1.77;1.67;;;25.40;49.90;;;;;;5069423;27;20545;-49
2022/06/17 12:33:27;;;;;;;1.50;1.40;;;25.40;49.60;;;;;;5073758;28;20586;-50
2022/06/17 12:36:14;;;;;;;1.80;1.70;;;25.40;49.70;;;;;;5141537;27;21118;-48
2022/06/17 12:39:00;;;;;;;1.70;1.60;;;25.40;49.80;;;;;;5096378;27;20531;-50
2022/06/17 12:41:50;;;;;;;1.87;1.57;;;25.40;49.80;;;;;;5061646;27;20556;-50
2022/06/17 12:44:43;;;;;;;1.73;1.63;;;25.50;51.20;;;;;;5080835;27;20477;-48
2022/06/17 12:47:29;;;;;;;1.90;1.80;;;25.50;50.50;;;;;;5083862;27;21121;-52
2022/06/17 12:53:35;;;;;;;2.73;1.67;;;25.50;50.30;;;;;;5079854;27;20528;-51
2022/06/17 12:56:29;;;;;;;1.77;1.67;;;25.40;50.00;;;;;;5072079;27;20548;-49
2022/06/17 12:59:45;;;;;;;1.70;1.60;;;25.40;49.70;;;;;;5078195;28;20528;-49
2022/06/17 13:02:36;;;;;;;2.00;1.80;;;25.50;50.00;;;;;;5119414;27;20533;-48
2022/06/17 13:05:24;;;;;;;1.87;1.77;;;25.40;50.00;;;;;;5068852;28;21062;-50
2022/06/17 13:08:25;;;;;;;2.10;2.00;;;25.50;50.10;;;;;;5081874;27;20533;-48
2022/06/17 13:11:13;;;;;;;1.70;1.57;;;25.50;50.30;;;;;;5088828;27;20935;-50
2022/06/17 13:14:07;;;;;;;1.97;1.80;;;25.50;50.00;;;;;;5083930;27;21041;-50
2022/06/17 13:16:56;;;;;;;3.27;1.63;;;25.50;50.20;;;;;;5059547;27;20922;-50
2022/06/17 13:19:42;;;;;;;1.83;1.67;;;25.50;50.80;;;;;;5123639;27;20546;-50
2022/06/17 13:22:35;;;;;;;1.80;1.57;;;25.50;50.60;;;;;;5137208;27;20550;-51
2022/06/17 13:25:27;;;;;;;2.03;1.40;;;25.60;50.50;;;;;;5079340;28;20585;-48
2022/06/17 13:28:14;;;;;;;1.80;1.70;;;25.50;50.30;;;;;;5120073;27;20537;-50
2022/06/17 13:31:01;;;;;;;1.70;1.60;;;25.60;49.30;;;;;;5056823;27;20548;-50
2022/06/17 13:33:50;;;;;;;2.00;1.87;;;25.60;49.30;;;;;;5082593;28;20533;-49
2022/06/17 13:36:36;;;;;;;1.63;1.53;;;25.60;49.50;;;;;;5056040;27;20538;-49
2022/06/17 13:39:20;;;;;;;1.70;1.60;;;25.60;49.50;;;;;;5084263;27;20531;-51
2022/06/17 13:42:03;;;;;;;1.63;1.53;;;25.60;49.30;;;;;;5099850;27;20576;-49
2022/06/17 13:44:56;;;;;;;2.40;1.70;;;25.60;49.20;;;;;;5067618;27;20521;-48
2022/06/17 13:47:46;;;;;;;1.77;1.67;;;25.60;49.00;;;;;;5108180;27;20564;-48
2022/06/17 13:50:37;;;;;;;1.53;1.43;;;25.60;49.00;;;;;;5072329;27;20596;-51
2022/06/17 13:53:28;;;;;;;1.70;1.60;;;25.60;48.90;;;;;;5086198;28;20582;-51
2022/06/17 13:56:20;;;;;;;1.83;1.73;;;25.70;49.20;;;;;;5085860;27;20528;-48
2022/06/17 13:59:04;;;;;;;1.70;1.60;;;25.70;50.40;;;;;;5087780;27;21018;-47
2022/06/17 14:01:48;;;;;;;1.67;1.57;;;25.60;49.30;;;;;;5063085;27;20541;-47
2022/06/17 14:04:31;;;;;;;1.97;1.87;;;25.70;49.40;;;;;;5077486;28;20528;-49
2022/06/17 14:07:12;;;;;;;1.70;1.60;;;25.70;49.50;;;;;;5088285;28;20511;-47
2022/06/17 14:09:53;;;;;;;1.53;1.43;;;25.70;49.60;;;;;;5078869;28;21020;-50
2022/06/17 14:12:45;;;;;;;1.70;1.60;;;25.70;50.80;;;;;;5087843;28;20516;-47
2022/06/17 14:15:30;;;;;;;1.90;1.80;;;25.70;49.70;;;;;;5065422;28;20555;-49
2022/06/17 14:18:22;;;;;;;1.57;1.47;;;25.70;49.60;;;;;;5087760;27;20574;-48
2022/06/17 14:21:10;;;;;;;1.90;1.73;;;25.70;49.70;;;;;;5101992;27;20586;-50
2022/06/17 14:23:54;;;;;;;1.90;1.80;;;25.70;49.80;;;;;;5125816;27;20957;-48
2022/06/17 14:26:55;;;;;;;1.60;1.50;;;25.70;49.70;;;;;;5070045;27;20529;-48
2022/06/17 14:29:37;;;;;;;1.70;1.60;;;25.70;49.70;;;;;;5084315;27;20581;-50
2022/06/17 14:32:19;;;;;;;1.70;1.60;;;25.70;49.70;;;;;;5081837;27;20561;-50
2022/06/17 14:35:01;;;;;;;1.57;1.40;;;25.70;49.70;;;;;;5092705;27;20588;-49
2022/06/17 14:37:49;;;;;;;1.57;1.47;;;25.80;49.70;;;;;;5128755;27;20570;-50
2022/06/17 14:42:01;;;;;;;2.87;1.60;;;25.80;49.50;;;;;;5091958;27;20948;-49